createdAt,value
2018-05-10T20:32:36.006Z,97325.58
2018-05-10T20:43:51.778Z,97304.58
2018-05-10T20:47:40.978Z,97312.65
2018-05-10T20:50:10.611Z,97311.61
2018-05-10T20:52:40.997Z,97316.70
2018-05-10T20:55:14.329Z,97312.69
2018-05-10T20:57:45.437Z,97319.19
2018-05-10T21:00:17.779Z,97319.54
2018-05-10T21:02:51.481Z,97327.72
2018-05-10T21:05:21.627Z,97322.25
2018-05-10T21:07:52.852Z,97324.77
2018-05-10T21:10:23.611Z,97325.60
2018-05-10T21:20:21.817Z,97335.92
2018-05-10T21:23:51.609Z,97335.67
2018-05-10T21:33:26.602Z,97335.95
2018-05-10T21:38:59.769Z,97342.17
2018-05-10T21:44:22.675Z,97346.52
2018-05-10T21:46:53.571Z,97360.52
2018-05-10T21:49:42.684Z,97356.37
2018-05-10T21:52:12.663Z,97357.95
2018-05-10T21:57:08.761Z,97357.15
2018-05-10T21:59:38.882Z,97360.25
2018-05-10T22:02:09.000Z,97359.56
2018-05-10T22:06:10.742Z,97363.23
2018-05-10T22:08:40.556Z,97361.44
2018-05-10T22:11:10.658Z,97365.15
2018-05-10T22:13:40.855Z,97362.08
2018-05-10T22:16:10.885Z,97364.25
2018-05-10T22:19:57.657Z,97372.51
2018-05-10T22:22:36.895Z,97371.05
2018-05-10T22:25:07.234Z,97369.02
2018-05-10T22:27:37.951Z,97369.11
2018-05-10T22:30:08.796Z,97376.08
2018-05-10T22:32:39.776Z,97375.20
2018-05-10T22:35:10.541Z,97383.10
2018-05-10T22:42:04.347Z,97378.63
2018-05-10T22:44:37.336Z,97376.33
2018-05-10T22:47:10.050Z,97382.82
2018-05-10T22:49:39.807Z,97363.67
2018-05-10T22:52:09.907Z,97381.77
2018-05-10T22:54:40.665Z,97384.66
2018-05-10T22:57:10.825Z,97388.86
2018-05-10T22:59:40.884Z,97386.13
2018-05-10T23:02:10.911Z,97385.03
2018-05-10T23:04:42.681Z,97381.17
2018-05-10T23:07:12.809Z,97380.88
2018-05-10T23:09:46.804Z,97375.93
2018-05-10T23:12:18.439Z,97381.38
2018-05-10T23:14:49.822Z,97371.78
2018-05-10T23:17:20.036Z,97380.61
2018-05-10T23:19:49.770Z,97379.48
2018-05-10T23:22:19.914Z,97380.57
2018-05-10T23:24:51.955Z,97378.23
2018-05-10T23:27:22.619Z,97379.00
2018-05-10T23:29:53.771Z,97380.81
2018-05-10T23:32:24.587Z,97376.61
2018-05-10T23:34:54.764Z,97381.14
2018-05-10T23:37:24.862Z,97377.34
2018-05-10T23:39:55.754Z,97382.83
2018-05-10T23:42:25.794Z,97379.00
2018-05-10T23:44:55.836Z,97386.58
2018-05-10T23:47:25.760Z,97379.32
2018-05-10T23:49:58.618Z,97383.30
2018-05-10T23:52:29.612Z,97378.80
2018-05-10T23:55:01.611Z,97376.37
2018-05-10T23:57:32.377Z,97383.99
